createdAt,value
2023-02-16T00:01:59.723Z,66.10
2023-02-16T00:07:04.453Z,66.20
2023-02-16T00:12:37.940Z,66.30
2023-02-16T00:17:41.225Z,66.60
2023-02-16T00:22:46.088Z,66.20
2023-02-16T00:27:49.643Z,66.40
2023-02-16T00:32:54.262Z,66.40
2023-02-16T00:37:58.944Z,66.40
2023-02-16T00:43:02.506Z,66.60
2023-02-16T00:48:06.466Z,66.50
2023-02-16T00:53:14.746Z,66.80
2023-02-16T00:58:25.635Z,66.80
2023-02-16T01:03:30.665Z,67.20
2023-02-16T01:08:52.793Z,67.10
2023-02-16T01:13:57.485Z,67.30
2023-02-16T01:19:00.882Z,67.30
2023-02-16T01:24:05.815Z,67.30
2023-02-16T01:29:15.325Z,67.60
2023-02-16T01:34:18.629Z,67.70
2023-02-16T01:39:23.376Z,67.40
2023-02-16T01:44:31.376Z,67.80
2023-02-16T01:49:34.989Z,67.70
2023-02-16T01:54:44.644Z,67.60
2023-02-16T02:00:07.460Z,67.90
2023-02-16T02:05:36.976Z,68.40
2023-02-16T02:10:53.643Z,68.20
2023-02-16T02:16:00.094Z,68.20
2023-02-16T02:21:35.142Z,68.00
2023-02-16T02:26:57.974Z,68.30
2023-02-16T02:32:09.286Z,68.70
2023-02-16T02:37:23.892Z,68.40
2023-02-16T02:42:37.317Z,68.60
2023-02-16T02:47:43.137Z,68.90
2023-02-16T02:52:46.505Z,68.60
2023-02-16T02:58:09.534Z,68.60
2023-02-16T03:03:20.019Z,68.80
2023-02-16T03:08:26.315Z,69.00
2023-02-16T03:13:35.954Z,69.10
2023-02-16T03:18:58.981Z,69.40
2023-02-16T03:24:22.114Z,69.00
2023-02-16T03:29:28.559Z,69.10
2023-02-16T03:34:33.175Z,69.30
2023-02-16T03:39:58.837Z,69.10
2023-02-16T03:45:03.530Z,68.90
2023-02-16T03:50:08.153Z,69.00
2023-02-16T03:55:11.491Z,68.90
2023-02-16T04:00:16.960Z,68.80
2023-02-16T04:05:20.743Z,68.90
2023-02-16T04:10:24.608Z,68.70
2023-02-16T04:15:31.515Z,68.70
2023-02-16T04:20:36.205Z,68.70
2023-02-16T04:25:39.974Z,68.50
2023-02-16T04:30:44.729Z,68.50
2023-02-16T04:35:48.022Z,68.40
2023-02-16T04:40:51.260Z,68.30
2023-02-16T04:45:56.335Z,68.20
2023-02-16T04:50:59.687Z,68.40
2023-02-16T04:56:03.100Z,68.40
2023-02-16T05:01:08.209Z,68.40
2023-02-16T05:06:11.660Z,68.60
2023-02-16T05:11:32.674Z,68.40
2023-02-16T05:16:38.191Z,68.50
2023-02-16T05:21:41.579Z,68.60
2023-02-16T05:26:44.918Z,68.40
2023-02-16T05:31:49.867Z,68.40
2023-02-16T05:36:53.569Z,68.60
2023-02-16T05:41:57.009Z,68.40
2023-02-16T05:47:01.668Z,68.50
2023-02-16T05:52:04.987Z,68.50
2023-02-16T05:57:08.302Z,68.60
2023-02-16T06:02:13.108Z,68.50
2023-02-16T06:07:16.409Z,68.50
2023-02-16T06:12:19.703Z,68.60
2023-02-16T06:17:25.123Z,68.50
2023-02-16T06:22:28.545Z,68.80
2023-02-16T06:27:31.874Z,68.60
2023-02-16T06:32:36.662Z,68.70
2023-02-16T06:37:40.010Z,68.70
2023-02-16T06:42:46.749Z,68.60
2023-02-16T06:47:51.364Z,68.60
2023-02-16T06:52:54.692Z,68.60
2023-02-16T06:57:58.099Z,69.70
2023-02-16T07:03:02.942Z,69.70
2023-02-16T07:08:06.872Z,69.50
2023-02-16T07:13:13.132Z,69.10
2023-02-16T07:18:18.129Z,68.90
2023-02-16T07:23:21.407Z,68.90
2023-02-16T07:28:24.767Z,68.80
2023-02-16T07:33:29.661Z,68.70
2023-02-16T07:38:33.100Z,68.80
2023-02-16T07:43:36.451Z,68.80
2023-02-16T07:48:41.195Z,68.80
2023-02-16T07:53:44.445Z,69.10
2023-02-16T07:58:47.762Z,69.10
2023-02-16T08:03:54.697Z,69.10
2023-02-16T08:08:58.546Z,69.30
2023-02-16T08:14:02.061Z,69.00
2023-02-16T08:19:07.158Z,69.00
2023-02-16T08:24:14.742Z,69.00
2023-02-16T08:29:19.027Z,69.10
2023-02-16T08:34:25.510Z,69.10
2023-02-16T08:39:31.895Z,69.10
2023-02-16T08:44:35.585Z,69.10
2023-02-16T08:49:40.570Z,69.10
2023-02-16T08:54:46.943Z,69.10
2023-02-16T09:00:11.053Z,69.10
2023-02-16T09:05:16.096Z,69.10
2023-02-16T09:10:19.954Z,69.10
2023-02-16T09:15:23.991Z,69.30
2023-02-16T09:20:29.156Z,69.30
2023-02-16T09:25:32.868Z,69.30
2023-02-16T09:30:36.318Z,69.20
2023-02-16T09:35:41.538Z,69.20
2023-02-16T09:40:45.684Z,69.00
2023-02-16T09:45:53.372Z,69.10
2023-02-16T09:51:00.644Z,69.10
2023-02-16T09:56:09.986Z,69.20
2023-02-16T10:01:25.862Z,69.40
2023-02-16T10:06:43.018Z,69.30
2023-02-16T10:11:49.636Z,69.30
2023-02-16T10:16:58.901Z,69.30
2023-02-16T10:22:07.073Z,69.30
2023-02-16T10:27:16.632Z,68.90
2023-02-16T10:32:29.344Z,68.70
2023-02-16T10:37:52.448Z,68.50
2023-02-16T10:43:01.960Z,68.40
2023-02-16T10:48:06.126Z,68.30
2023-02-16T10:53:15.905Z,69.20
2023-02-16T10:58:26.546Z,68.80
2023-02-16T11:03:37.531Z,68.50
2023-02-16T11:08:49.950Z,68.10
2023-02-16T11:14:01.444Z,67.70
2023-02-16T11:19:08.097Z,67.60
2023-02-16T11:24:15.597Z,67.60
2023-02-16T11:29:21.587Z,67.40
2023-02-16T11:34:32.787Z,67.20
2023-02-16T11:39:40.270Z,66.80
2023-02-16T11:44:47.048Z,66.60
2023-02-16T11:49:51.891Z,66.70
2023-02-16T11:54:58.670Z,66.50
2023-02-16T12:00:09.828Z,66.20
2023-02-16T12:05:27.368Z,66.20
2023-02-16T12:10:40.387Z,68.00
2023-02-16T12:15:49.358Z,66.90
2023-02-16T12:21:00.114Z,66.40
2023-02-16T12:26:34.174Z,66.00
2023-02-16T12:31:54.480Z,65.30
2023-02-16T12:37:04.700Z,65.40
2023-02-16T12:42:40.387Z,66.70
2023-02-16T12:47:49.439Z,65.90
2023-02-16T12:52:58.824Z,65.80
2023-02-16T12:58:11.476Z,65.60
2023-02-16T13:03:35.860Z,65.40
2023-02-16T13:08:45.512Z,65.00
2023-02-16T13:13:53.489Z,65.30
2023-02-16T13:18:57.516Z,65.20
2023-02-16T13:24:09.580Z,65.40
2023-02-16T13:29:29.877Z,65.30
2023-02-16T13:35:03.755Z,65.10
2023-02-16T13:40:31.064Z,65.20
2023-02-16T13:45:40.595Z,65.20
2023-02-16T13:50:46.642Z,65.30
2023-02-16T13:55:52.764Z,65.50
2023-02-16T14:00:57.488Z,65.50
2023-02-16T14:06:32.488Z,65.40
2023-02-16T14:12:03.400Z,65.10
2023-02-16T14:17:25.917Z,64.90
2023-02-16T14:22:42.529Z,65.00
2023-02-16T14:27:49.140Z,65.10
2023-02-16T14:32:57.620Z,65.20
2023-02-16T14:38:03.444Z,65.20
2023-02-16T14:43:18.103Z,65.30
2023-02-16T14:49:08.560Z,65.20
2023-02-16T14:54:50.544Z,65.00
2023-02-16T15:00:01.043Z,64.90
2023-02-16T15:05:19.668Z,65.10
2023-02-16T15:10:27.688Z,64.90
2023-02-16T15:15:49.284Z,65.10
2023-02-16T15:20:57.735Z,64.80
2023-02-16T15:26:03.917Z,65.00
2023-02-16T15:31:10.357Z,65.00
2023-02-16T15:36:27.285Z,64.90
2023-02-16T15:41:32.815Z,64.80
2023-02-16T15:46:39.758Z,65.00
2023-02-16T15:51:45.398Z,64.80
2023-02-16T15:56:50.246Z,65.10
2023-02-16T16:02:00.200Z,64.80
2023-02-16T16:07:07.873Z,64.70
2023-02-16T16:12:17.224Z,64.70
2023-02-16T16:17:24.408Z,64.60
2023-02-16T16:22:38.624Z,64.50
2023-02-16T16:27:50.862Z,65.30
2023-02-16T16:33:02.904Z,64.50
2023-02-16T16:38:23.903Z,64.50
2023-02-16T16:43:31.848Z,64.50
2023-02-16T16:48:38.708Z,64.40
2023-02-16T16:53:56.048Z,64.50
2023-02-16T16:59:01.890Z,64.40
2023-02-16T17:04:06.747Z,64.50
2023-02-16T17:09:14.808Z,64.50
2023-02-16T17:14:21.934Z,64.50
2023-02-16T17:19:29.848Z,64.60
2023-02-16T17:24:40.391Z,64.50
2023-02-16T17:29:47.252Z,64.70
2023-02-16T17:34:55.710Z,64.90
2023-02-16T17:40:01.833Z,64.80
2023-02-16T17:45:07.558Z,65.30
2023-02-16T17:50:14.744Z,65.50
2023-02-16T17:55:21.589Z,65.30
2023-02-16T18:00:28.789Z,65.30
2023-02-16T18:05:36.551Z,65.20
2023-02-16T18:10:45.660Z,65.20
2023-02-16T18:15:52.814Z,65.30
2023-02-16T18:20:57.656Z,65.30
2023-02-16T18:26:04.850Z,65.50
2023-02-16T18:31:10.163Z,65.60
2023-02-16T18:36:15.257Z,65.50
2023-02-16T18:41:22.227Z,65.60
2023-02-16T18:46:27.348Z,65.80
2023-02-16T18:51:34.573Z,65.90
2023-02-16T18:56:42.307Z,66.00
2023-02-16T19:01:47.665Z,66.30
2023-02-16T19:06:52.589Z,66.90
2023-02-16T19:12:00.332Z,66.90
2023-02-16T19:17:05.868Z,69.40
2023-02-16T19:22:12.539Z,68.10
2023-02-16T19:27:20.090Z,67.80
2023-02-16T19:32:25.156Z,67.40
2023-02-16T19:37:30.414Z,67.10
2023-02-16T19:42:36.897Z,67.70
2023-02-16T19:47:44.815Z,66.70
2023-02-16T19:52:50.404Z,66.50
2023-02-16T19:57:57.010Z,67.20
2023-02-16T20:03:03.700Z,66.80
2023-02-16T20:08:09.234Z,66.80
2023-02-16T20:13:15.525Z,66.90
2023-02-16T20:18:20.470Z,66.50
2023-02-16T20:23:27.308Z,66.50
2023-02-16T20:28:34.533Z,66.30
2023-02-16T20:33:41.766Z,66.20
2023-02-16T20:38:47.605Z,66.20
2023-02-16T20:43:54.545Z,66.00
2023-02-16T20:49:00.146Z,65.90
2023-02-16T20:54:05.864Z,66.00
2023-02-16T20:59:15.390Z,65.70
2023-02-16T21:04:20.546Z,65.30
2023-02-16T21:09:26.298Z,65.30
2023-02-16T21:14:35.197Z,65.10
2023-02-16T21:19:41.189Z,64.80
2023-02-16T21:24:46.218Z,64.50
2023-02-16T21:29:51.664Z,64.60
2023-02-16T21:34:56.691Z,64.40
2023-02-16T21:40:17.902Z,64.20
2023-02-16T21:45:22.649Z,64.10
2023-02-16T21:50:26.505Z,63.90
2023-02-16T21:55:48.958Z,63.90
2023-02-16T22:00:56.529Z,63.70
2023-02-16T22:06:03.882Z,63.50
2023-02-16T22:11:08.645Z,63.30
2023-02-16T22:16:15.570Z,63.50
2023-02-16T22:21:18.943Z,63.50
2023-02-16T22:26:24.747Z,63.50
2023-02-16T22:31:29.912Z,63.40
2023-02-16T22:36:34.306Z,63.50
2023-02-16T22:41:37.685Z,63.10
2023-02-16T22:46:42.595Z,63.10
2023-02-16T22:51:46.051Z,63.10
2023-02-16T22:56:49.367Z,63.00
2023-02-16T23:01:54.044Z,63.20
2023-02-16T23:06:57.327Z,63.30
2023-02-16T23:12:00.771Z,63.40
2023-02-16T23:17:05.510Z,63.50
2023-02-16T23:22:09.021Z,63.60
2023-02-16T23:27:12.413Z,63.70
2023-02-16T23:32:17.128Z,63.70
2023-02-16T23:37:20.459Z,63.70
2023-02-16T23:42:23.986Z,63.80
2023-02-16T23:47:28.777Z,64.00
2023-02-16T23:52:32.071Z,64.00
2023-02-16T23:57:35.483Z,64.00
